Portada
METAR-TAF:

METAR-TAF

Aeroports :

Xi'an, Xina

latitud: 34-26N, longitud: 108-45E, altitud: 479 m

Observació

L'informe es va fer fa 25 minuts, a les 20:00 UTC
Vent calma
Temperatura 18°C
Humitat 77%
Pressió 1009 hPa
Visibilitat 10 km o més
sense núvols per sota de 1500 mi sense presència de cumulonimbus.

METAR: ZLXY 012000Z 00000MPS CAVOK 18/14 Q1009 NOSIG

Hora: 04:25 (20:25 UTC)

Pronòstic

L'informe es va fer fa 5 hores i 20 minuts, a les 15:05 UTC
Pronòstic vàlid del 01 a les 18 UTC al 02 a les 18 UTC
Vent 8 kt del Oest
Visibilitat: 3000 m
calitja

TAF: ZLXY 011505Z 0118/0218 26004MPS 3000 HZ NSC TX33/0207Z TN18/0122Z

Observacions i pronòstics meteorològics de més de 4000 aeroports (METAR i TAF).

Les estacions disponibles són els punts grocs i vermells al mapa.

Posi el ratolí al punt desitjat per veure el nom de l'estació.

Feu clic per veure les observacions i els pronòstics meteorològics.

Per canviar el mapa: feu clic els botons verds amb una creu de color negre per apropar; al botó verd amb un guió per allunyar la imatge; o en les fletxes verdes per a mapes adjacents.


METAR-TAF: